sensor_id;sensor_type;location;lat;lon;timestamp;pressure;altitude;pressure_sealevel;temperature;humidity
66273;BME280;58450;52.150;4.466;2022-11-20T00:01:05;101375.59;;;-0.26;100.00
66273;BME280;58450;52.150;4.466;2022-11-20T00:03:34;101380.25;;;-0.30;100.00
66273;BME280;58450;52.150;4.466;2022-11-20T00:06:02;101380.06;;;-0.27;100.00
66273;BME280;58450;52.150;4.466;2022-11-20T00:08:32;101381.09;;;-0.30;100.00
66273;BME280;58450;52.150;4.466;2022-11-20T00:11:03;101383.72;;;-0.30;100.00
66273;BME280;58450;52.150;4.466;2022-11-20T00:13:31;101389.34;;;-0.34;100.00
66273;BME280;58450;52.150;4.466;2022-11-20T00:16:00;101392.28;;;-0.39;100.00
66273;BME280;58450;52.150;4.466;2022-11-20T00:18:28;101398.44;;;-0.38;100.00
66273;BME280;58450;52.150;4.466;2022-11-20T00:21:01;101392.06;;;-0.36;100.00
66273;BME280;58450;52.150;4.466;2022-11-20T00:23:29;101372.28;;;-0.43;100.00
66273;BME280;58450;52.150;4.466;2022-11-20T00:26:01;101375.66;;;-0.41;100.00
66273;BME280;58450;52.150;4.466;2022-11-20T00:28:29;101373.22;;;-0.44;100.00
66273;BME280;58450;52.150;4.466;2022-11-20T00:31:01;101365.28;;;-0.44;100.00
66273;BME280;58450;52.150;4.466;2022-11-20T00:33:29;101374.41;;;-0.48;100.00
66273;BME280;58450;52.150;4.466;2022-11-20T00:36:00;101370.38;;;-0.41;100.00
66273;BME280;58450;52.150;4.466;2022-11-20T00:38:29;101365.41;;;-0.46;100.00
66273;BME280;58450;52.150;4.466;2022-11-20T00:40:59;101364.13;;;-0.40;100.00
66273;BME280;58450;52.150;4.466;2022-11-20T00:43:29;101370.09;;;-0.36;100.00
66273;BME280;58450;52.150;4.466;2022-11-20T00:45:57;101359.59;;;-0.38;100.00
66273;BME280;58450;52.150;4.466;2022-11-20T00:48:25;101355.69;;;-0.45;100.00
66273;BME280;58450;52.150;4.466;2022-11-20T00:50:53;101344.13;;;-0.44;100.00
66273;BME280;58450;52.150;4.466;2022-11-20T00:53:21;101344.13;;;-0.44;100.00
66273;BME280;58450;52.150;4.466;2022-11-20T00:55:53;101345.13;;;-0.45;100.00
66273;BME280;58450;52.150;4.466;2022-11-20T00:58:23;101359.69;;;-0.52;100.00
66273;BME280;58450;52.150;4.466;2022-11-20T01:00:52;101357.69;;;-0.49;100.00
66273;BME280;58450;52.150;4.466;2022-11-20T01:03:19;101364.78;;;-0.49;100.00
66273;BME280;58450;52.150;4.466;2022-11-20T01:05:47;101362.13;;;-0.49;100.00
66273;BME280;58450;52.150;4.466;2022-11-20T01:08:14;101351.44;;;-0.48;100.00
66273;BME280;58450;52.150;4.466;2022-11-20T01:10:42;101359.69;;;-0.52;100.00
66273;BME280;58450;52.150;4.466;2022-11-20T01:13:09;101361.25;;;-0.63;100.00
66273;BME280;58450;52.150;4.466;2022-11-20T01:16:02;101352.16;;;-0.58;100.00
66273;BME280;58450;52.150;4.466;2022-11-20T01:18:29;101347.72;;;-0.58;100.00
66273;BME280;58450;52.150;4.466;2022-11-20T01:21:00;101346.47;;;-0.52;100.00
66273;BME280;58450;52.150;4.466;2022-11-20T01:23:33;101340.72;;;-0.59;100.00
66273;BME280;58450;52.150;4.466;2022-11-20T01:26:02;101342.75;;;-0.63;100.00
66273;BME280;58450;52.150;4.466;2022-11-20T01:28:31;101341.13;;;-0.65;100.00
66273;BME280;58450;52.150;4.466;2022-11-20T01:31:00;101335.75;;;-0.64;100.00
66273;BME280;58450;52.150;4.466;2022-11-20T01:33:28;101341.34;;;-0.68;100.00
66273;BME280;58450;52.150;4.466;2022-11-20T01:36:03;101341.53;;;-0.71;100.00
66273;BME280;58450;52.150;4.466;2022-11-20T01:38:32;101343.19;;;-0.83;100.00
66273;BME280;58450;52.150;4.466;2022-11-20T01:41:00;101346.78;;;-0.84;100.00
66273;BME280;58450;52.150;4.466;2022-11-20T01:43:28;101341.41;;;-0.83;100.00
66273;BME280;58450;52.150;4.466;2022-11-20T01:46:17;101340.38;;;-0.80;100.00
66273;BME280;58450;52.150;4.466;2022-11-20T01:48:50;101328.09;;;-0.81;100.00
66273;BME280;58450;52.150;4.466;2022-11-20T01:51:25;101335.81;;;-0.78;100.00
66273;BME280;58450;52.150;4.466;2022-11-20T01:53:59;101335.63;;;-0.75;100.00
66273;BME280;58450;52.150;4.466;2022-11-20T01:56:32;101332.97;;;-0.75;100.00
66273;BME280;58450;52.150;4.466;2022-11-20T01:59:06;101332.03;;;-0.74;100.00
66273;BME280;58450;52.150;4.466;2022-11-20T02:01:38;101343.63;;;-0.77;100.00
66273;BME280;58450;52.150;4.466;2022-11-20T02:04:07;101338.66;;;-0.81;100.00
66273;BME280;58450;52.150;4.466;2022-11-20T02:06:42;101334.13;;;-0.79;100.00
66273;BME280;58450;52.150;4.466;2022-11-20T02:09:13;101342.34;;;-0.84;100.00
66273;BME280;58450;52.150;4.466;2022-11-20T02:11:41;101349.19;;;-0.94;100.00
66273;BME280;58450;52.150;4.466;2022-11-20T02:14:10;101341.16;;;-0.93;100.00
66273;BME280;58450;52.150;4.466;2022-11-20T02:16:43;101341.06;;;-0.91;100.00
66273;BME280;58450;52.150;4.466;2022-11-20T02:19:21;101346.44;;;-0.93;100.00
66273;BME280;58450;52.150;4.466;2022-11-20T02:21:58;101344.75;;;-0.94;100.00
66273;BME280;58450;52.150;4.466;2022-11-20T02:24:30;101341.47;;;-0.97;100.00
66273;BME280;58450;52.150;4.466;2022-11-20T02:27:00;101334.56;;;-1.00;100.00
66273;BME280;58450;52.150;4.466;2022-11-20T02:29:33;101335.44;;;-0.99;100.00
66273;BME280;58450;52.150;4.466;2022-11-20T02:32:05;101341.94;;;-1.05;100.00
66273;BME280;58450;52.150;4.466;2022-11-20T02:34:33;101335.91;;;-1.07;100.00
66273;BME280;58450;52.150;4.466;2022-11-20T02:37:00;101336.63;;;-1.18;100.00
66273;BME280;58450;52.150;4.466;2022-11-20T02:39:30;101335.47;;;-1.14;100.00
66273;BME280;58450;52.150;4.466;2022-11-20T02:41:57;101325.19;;;-1.19;100.00
66273;BME280;58450;52.150;4.466;2022-11-20T02:44:28;101320.03;;;-1.20;100.00
66273;BME280;58450;52.150;4.466;2022-11-20T02:46:56;101318.78;;;-1.14;100.00
66273;BME280;58450;52.150;4.466;2022-11-20T02:49:24;101313.69;;;-1.17;100.00
66273;BME280;58450;52.150;4.466;2022-11-20T02:51:52;101316.91;;;-1.27;100.00
66273;BME280;58450;52.150;4.466;2022-11-20T02:54:19;101310.25;;;-1.32;100.00
66273;BME280;58450;52.150;4.466;2022-11-20T02:56:48;101304.84;;;-1.31;100.00
66273;BME280;58450;52.150;4.466;2022-11-20T02:59:16;101305.06;;;-1.34;100.00
66273;BME280;58450;52.150;4.466;2022-11-20T03:01:43;101293.75;;;-1.36;100.00
66273;BME280;58450;52.150;4.466;2022-11-20T03:04:10;101293.16;;;-1.27;100.00
66273;BME280;58450;52.150;4.466;2022-11-20T03:06:38;101294.75;;;-1.24;100.00
66273;BME280;58450;52.150;4.466;2022-11-20T03:09:06;101292.19;;;-1.26;100.00
66273;BME280;58450;52.150;4.466;2022-11-20T03:11:33;101283.44;;;-1.26;100.00
66273;BME280;58450;52.150;4.466;2022-11-20T03:14:03;101280.50;;;-1.22;100.00
66273;BME280;58450;52.150;4.466;2022-11-20T03:16:31;101275.31;;;-1.23;100.00
66273;BME280;58450;52.150;4.466;2022-11-20T03:18:59;101264.84;;;-1.25;100.00
66273;BME280;58450;52.150;4.466;2022-11-20T03:21:27;101266.09;;;-1.30;100.00
66273;BME280;58450;52.150;4.466;2022-11-20T03:23:55;101257.44;;;-1.32;100.00
66273;BME280;58450;52.150;4.466;2022-11-20T03:26:24;101265.25;;;-1.31;100.00
66273;BME280;58450;52.150;4.466;2022-11-20T03:28:54;101266.09;;;-1.30;100.00
66273;BME280;58450;52.150;4.466;2022-11-20T03:31:26;101272.03;;;-1.27;100.00
66273;BME280;58450;52.150;4.466;2022-11-20T03:33:56;101268.38;;;-1.39;100.00
66273;BME280;58450;52.150;4.466;2022-11-20T03:36:25;101261.34;;;-1.38;100.00
66273;BME280;58450;52.150;4.466;2022-11-20T03:38:54;101256.13;;;-1.40;100.00
66273;BME280;58450;52.150;4.466;2022-11-20T03:41:24;101251.16;;;-1.44;100.00
66273;BME280;58450;52.150;4.466;2022-11-20T03:43:54;101243.25;;;-1.44;100.00
66273;BME280;58450;52.150;4.466;2022-11-20T03:46:25;101256.25;;;-1.41;100.00
66273;BME280;58450;52.150;4.466;2022-11-20T03:48:54;101249.34;;;-1.44;100.00
66273;BME280;58450;52.150;4.466;2022-11-20T03:51:23;101254.84;;;-1.47;100.00
66273;BME280;58450;52.150;4.466;2022-11-20T03:53:53;101252.31;;;-1.49;100.00
66273;BME280;58450;52.150;4.466;2022-11-20T03:56:23;101249.31;;;-1.57;100.00
66273;BME280;58450;52.150;4.466;2022-11-20T03:58:53;101251.09;;;-1.57;100.00
66273;BME280;58450;52.150;4.466;2022-11-20T04:01:23;101242.78;;;-1.51;100.00
66273;BME280;58450;52.150;4.466;2022-11-20T04:03:54;101243.53;;;-1.49;100.00
66273;BME280;58450;52.150;4.466;2022-11-20T04:06:25;101229.69;;;-1.53;100.00
66273;BME280;58450;52.150;4.466;2022-11-20T04:08:54;101223.06;;;-1.45;100.00
66273;BME280;58450;52.150;4.466;2022-11-20T04:11:23;101214.09;;;-1.43;100.00
66273;BME280;58450;52.150;4.466;2022-11-20T04:13:54;101211.56;;;-1.44;100.00
66273;BME280;58450;52.150;4.466;2022-11-20T04:16:25;101211.47;;;-1.43;100.00
66273;BME280;58450;52.150;4.466;2022-11-20T04:18:57;101203.19;;;-1.51;100.00
66273;BME280;58450;52.150;4.466;2022-11-20T04:21:26;101201.59;;;-1.54;100.00
66273;BME280;58450;52.150;4.466;2022-11-20T04:23:55;101192.94;;;-1.56;100.00
66273;BME280;58450;52.150;4.466;2022-11-20T04:26:24;101205.06;;;-1.53;100.00
66273;BME280;58450;52.150;4.466;2022-11-20T04:28:53;101193.88;;;-1.57;100.00
66273;BME280;58450;52.150;4.466;2022-11-20T04:31:25;101201.97;;;-1.45;100.00
66273;BME280;58450;52.150;4.466;2022-11-20T04:33:54;101198.41;;;-1.59;100.00
66273;BME280;58450;52.150;4.466;2022-11-20T04:36:24;101205.28;;;-1.56;100.00
66273;BME280;58450;52.150;4.466;2022-11-20T04:38:53;101211.41;;;-1.56;100.00
66273;BME280;58450;52.150;4.466;2022-11-20T04:41:24;101206.78;;;-1.52;100.00
66273;BME280;58450;52.150;4.466;2022-11-20T04:43:54;101194.53;;;-1.53;100.00
66273;BME280;58450;52.150;4.466;2022-11-20T04:46:27;101195.09;;;-1.63;100.00
66273;BME280;58450;52.150;4.466;2022-11-20T04:48:55;101207.28;;;-1.60;100.00
66273;BME280;58450;52.150;4.466;2022-11-20T04:51:23;101207.91;;;-1.56;100.00
66273;BME280;58450;52.150;4.466;2022-11-20T04:53:51;101216.69;;;-1.56;100.00
66273;BME280;58450;52.150;4.466;2022-11-20T04:56:18;101199.16;;;-1.57;100.00
66273;BME280;58450;52.150;4.466;2022-11-20T04:58:46;101205.19;;;-1.55;100.00
66273;BME280;58450;52.150;4.466;2022-11-20T05:01:15;101200.09;;;-1.58;100.00
66273;BME280;58450;52.150;4.466;2022-11-20T05:03:45;101202.19;;;-1.63;100.00
66273;BME280;58450;52.150;4.466;2022-11-20T05:06:15;101209.56;;;-1.68;100.00
66273;BME280;58450;52.150;4.466;2022-11-20T05:08:44;101210.69;;;-1.72;100.00
66273;BME280;58450;52.150;4.466;2022-11-20T05:11:13;101214.84;;;-1.68;100.00
66273;BME280;58450;52.150;4.466;2022-11-20T05:13:42;101212.47;;;-1.73;100.00
66273;BME280;58450;52.150;4.466;2022-11-20T05:16:12;101222.78;;;-1.83;100.00
66273;BME280;58450;52.150;4.466;2022-11-20T05:18:41;101215.91;;;-1.85;100.00
66273;BME280;58450;52.150;4.466;2022-11-20T05:21:11;101226.28;;;-1.82;100.00
66273;BME280;58450;52.150;4.466;2022-11-20T05:23:40;101227.09;;;-1.82;100.00
66273;BME280;58450;52.150;4.466;2022-11-20T05:26:13;101229.56;;;-1.79;100.00
66273;BME280;58450;52.150;4.466;2022-11-20T05:28:42;101216.28;;;-1.77;100.00
66273;BME280;58450;52.150;4.466;2022-11-20T05:31:11;101211.34;;;-1.69;100.00
66273;BME280;58450;52.150;4.466;2022-11-20T05:33:40;101213.97;;;-1.69;100.00
66273;BME280;58450;52.150;4.466;2022-11-20T05:36:11;101201.13;;;-1.60;100.00
66273;BME280;58450;52.150;4.466;2022-11-20T05:38:40;101197.75;;;-1.63;100.00
66273;BME280;58450;52.150;4.466;2022-11-20T05:41:10;101185.22;;;-1.59;100.00
66273;BME280;58450;52.150;4.466;2022-11-20T05:43:39;101181.22;;;-1.52;100.00
66273;BME280;58450;52.150;4.466;2022-11-20T05:46:10;101172.38;;;-1.51;100.00
66273;BME280;58450;52.150;4.466;2022-11-20T05:48:40;101182.38;;;-1.56;100.00
66273;BME280;58450;52.150;4.466;2022-11-20T05:51:12;101182.19;;;-1.53;100.00
66273;BME280;58450;52.150;4.466;2022-11-20T05:53:41;101188.50;;;-1.55;100.00
66273;BME280;58450;52.150;4.466;2022-11-20T05:56:11;101190.72;;;-1.49;100.00
66273;BME280;58450;52.150;4.466;2022-11-20T05:58:40;101185.56;;;-1.51;100.00
66273;BME280;58450;52.150;4.466;2022-11-20T06:01:10;101181.88;;;-1.48;100.00
66273;BME280;58450;52.150;4.466;2022-11-20T06:03:40;101166.97;;;-1.49;100.00
66273;BME280;58450;52.150;4.466;2022-11-20T06:06:13;101169.97;;;-1.41;100.00
66273;BME280;58450;52.150;4.466;2022-11-20T06:08:41;101163.31;;;-1.46;100.00
66273;BME280;58450;52.150;4.466;2022-11-20T06:11:10;101150.00;;;-1.45;100.00
66273;BME280;58450;52.150;4.466;2022-11-20T06:13:39;101162.09;;;-1.55;100.00
66273;BME280;58450;52.150;4.466;2022-11-20T06:16:07;101148.91;;;-1.55;100.00
66273;BME280;58450;52.150;4.466;2022-11-20T06:18:35;101153.97;;;-1.52;100.00
66273;BME280;58450;52.150;4.466;2022-11-20T06:21:04;101156.47;;;-1.64;100.00
66273;BME280;58450;52.150;4.466;2022-11-20T06:23:35;101153.56;;;-1.46;100.00
66273;BME280;58450;52.150;4.466;2022-11-20T06:26:05;101155.47;;;-1.48;100.00
66273;BME280;58450;52.150;4.466;2022-11-20T06:28:35;101153.34;;;-1.56;100.00
66273;BME280;58450;52.150;4.466;2022-11-20T06:31:03;101144.91;;;-1.48;100.00
66273;BME280;58450;52.150;4.466;2022-11-20T06:33:32;101146.53;;;-1.45;100.00
66273;BME280;58450;52.150;4.466;2022-11-20T06:36:00;101140.09;;;-1.41;100.00
66273;BME280;58450;52.150;4.466;2022-11-20T06:38:29;101141.38;;;-1.34;100.00
66273;BME280;58450;52.150;4.466;2022-11-20T06:40:58;101138.63;;;-1.32;100.00
66273;BME280;58450;52.150;4.466;2022-11-20T06:43:26;101138.09;;;-1.38;100.00
66273;BME280;58450;52.150;4.466;2022-11-20T06:45:56;101129.31;;;-1.38;100.00
66273;BME280;58450;52.150;4.466;2022-11-20T06:48:29;101126.78;;;-1.27;100.00
66273;BME280;58450;52.150;4.466;2022-11-20T06:50:57;101121.94;;;-1.33;100.00
66273;BME280;58450;52.150;4.466;2022-11-20T06:53:25;101130.69;;;-1.32;100.00
66273;BME280;58450;52.150;4.466;2022-11-20T06:55:55;101141.78;;;-1.40;100.00
66273;BME280;58450;52.150;4.466;2022-11-20T06:58:27;101135.38;;;-1.23;100.00
66273;BME280;58450;52.150;4.466;2022-11-20T07:00:58;101123.53;;;-1.17;100.00
66273;BME280;58450;52.150;4.466;2022-11-20T07:03:26;101121.50;;;-1.27;100.00
66273;BME280;58450;52.150;4.466;2022-11-20T07:05:54;101128.06;;;-1.20;100.00
66273;BME280;58450;52.150;4.466;2022-11-20T07:08:22;101128.53;;;-1.13;100.00
66273;BME280;58450;52.150;4.466;2022-11-20T07:10:51;101128.84;;;-1.05;100.00
66273;BME280;58450;52.150;4.466;2022-11-20T07:13:19;101135.09;;;-1.06;100.00
66273;BME280;58450;52.150;4.466;2022-11-20T07:15:47;101140.91;;;-1.00;100.00
66273;BME280;58450;52.150;4.466;2022-11-20T07:18:14;101133.38;;;-1.07;100.00
66273;BME280;58450;52.150;4.466;2022-11-20T07:20:42;101129.06;;;-1.08;100.00
66273;BME280;58450;52.150;4.466;2022-11-20T07:23:09;101137.19;;;-0.98;100.00
66273;BME280;58450;52.150;4.466;2022-11-20T07:25:37;101140.56;;;-0.83;100.00
66273;BME280;58450;52.150;4.466;2022-11-20T07:28:04;101130.84;;;-0.82;100.00
66273;BME280;58450;52.150;4.466;2022-11-20T07:30:33;101130.09;;;-0.71;100.00
66273;BME280;58450;52.150;4.466;2022-11-20T07:33:01;101127.38;;;-0.70;100.00
66273;BME280;58450;52.150;4.466;2022-11-20T07:35:28;101121.13;;;-0.69;100.00
66273;BME280;58450;52.150;4.466;2022-11-20T07:37:56;101110.47;;;-0.80;100.00
66273;BME280;58450;52.150;4.466;2022-11-20T07:40:23;101112.47;;;-0.71;100.00
66273;BME280;58450;52.150;4.466;2022-11-20T07:42:54;101127.25;;;-0.68;100.00
66273;BME280;58450;52.150;4.466;2022-11-20T07:45:23;101131.28;;;-0.63;100.00
66273;BME280;58450;52.150;4.466;2022-11-20T07:47:52;101126.53;;;-0.57;100.00
66273;BME280;58450;52.150;4.466;2022-11-20T07:50:20;101125.13;;;-0.50;100.00
66273;BME280;58450;52.150;4.466;2022-11-20T07:52:47;101117.50;;;-0.55;100.00
66273;BME280;58450;52.150;4.466;2022-11-20T07:55:15;101119.19;;;-0.54;100.00
66273;BME280;58450;52.150;4.466;2022-11-20T07:57:43;101127.25;;;-0.55;100.00
66273;BME280;58450;52.150;4.466;2022-11-20T08:00:11;101128.41;;;-0.47;100.00
66273;BME280;58450;52.150;4.466;2022-11-20T08:02:40;101133.13;;;-0.39;100.00
66273;BME280;58450;52.150;4.466;2022-11-20T08:05:10;101123.94;;;-0.33;100.00
66273;BME280;58450;52.150;4.466;2022-11-20T08:07:38;101133.84;;;-0.24;100.00
66273;BME280;58450;52.150;4.466;2022-11-20T08:10:07;101121.91;;;-0.30;100.00
66273;BME280;58450;52.150;4.466;2022-11-20T08:12:36;101125.50;;;-0.18;100.00
66273;BME280;58450;52.150;4.466;2022-11-20T08:15:27;101121.06;;;-0.30;100.00
66273;BME280;58450;52.150;4.466;2022-11-20T08:18:00;101120.84;;;-0.27;100.00
66273;BME280;58450;52.150;4.466;2022-11-20T08:20:30;101111.03;;;-0.38;100.00
66273;BME280;58450;52.150;4.466;2022-11-20T08:22:58;101121.38;;;-0.22;100.00
66273;BME280;58450;52.150;4.466;2022-11-20T08:25:27;101121.97;;;-0.18;100.00
66273;BME280;58450;52.150;4.466;2022-11-20T08:27:57;101122.19;;;-0.21;100.00
66273;BME280;58450;52.150;4.466;2022-11-20T08:30:25;101137.13;;;-0.20;100.00
66273;BME280;58450;52.150;4.466;2022-11-20T08:32:53;101117.56;;;-0.18;100.00
66273;BME280;58450;52.150;4.466;2022-11-20T08:35:21;101112.88;;;-0.14;100.00
66273;BME280;58450;52.150;4.466;2022-11-20T08:37:51;101104.19;;;-0.16;100.00
66273;BME280;58450;52.150;4.466;2022-11-20T08:40:18;101108.47;;;-0.26;100.00
66273;BME280;58450;52.150;4.466;2022-11-20T08:42:46;101113.16;;;-0.06;100.00
66273;BME280;58450;52.150;4.466;2022-11-20T08:45:15;101110.81;;;0.03;100.00
66273;BME280;58450;52.150;4.466;2022-11-20T08:47:43;101112.59;;;0.02;100.00
66273;BME280;58450;52.150;4.466;2022-11-20T08:50:12;101110.31;;;0.22;100.00
66273;BME280;58450;52.150;4.466;2022-11-20T08:52:42;101098.44;;;0.27;100.00
66273;BME280;58450;52.150;4.466;2022-11-20T08:55:11;101096.06;;;0.36;100.00
66273;BME280;58450;52.150;4.466;2022-11-20T08:57:39;101104.84;;;0.36;100.00
66273;BME280;58450;52.150;4.466;2022-11-20T09:00:07;101103.41;;;0.43;100.00
66273;BME280;58450;52.150;4.466;2022-11-20T09:02:37;101101.63;;;0.44;100.00
66273;BME280;58450;52.150;4.466;2022-11-20T09:05:05;101103.34;;;0.56;100.00
66273;BME280;58450;52.150;4.466;2022-11-20T09:07:33;101096.31;;;0.80;100.00
66273;BME280;58450;52.150;4.466;2022-11-20T09:10:00;101087.41;;;0.92;100.00
66273;BME280;58450;52.150;4.466;2022-11-20T09:12:29;101079.34;;;0.82;100.00
66273;BME280;58450;52.150;4.466;2022-11-20T09:14:56;101081.22;;;0.69;100.00
66273;BME280;58450;52.150;4.466;2022-11-20T09:17:24;101077.63;;;0.70;100.00
66273;BME280;58450;52.150;4.466;2022-11-20T09:19:52;101081.97;;;0.82;100.00
66273;BME280;58450;52.150;4.466;2022-11-20T09:22:19;101071.63;;;0.79;100.00
66273;BME280;58450;52.150;4.466;2022-11-20T09:24:47;101067.66;;;1.08;100.00
66273;BME280;58450;52.150;4.466;2022-11-20T09:27:15;101068.28;;;1.23;100.00
66273;BME280;58450;52.150;4.466;2022-11-20T09:29:47;101066.97;;;1.40;100.00
66273;BME280;58450;52.150;4.466;2022-11-20T09:32:15;101070.81;;;1.24;100.00
66273;BME280;58450;52.150;4.466;2022-11-20T09:34:42;101056.50;;;1.27;100.00
66273;BME280;58450;52.150;4.466;2022-11-20T09:37:10;101056.47;;;1.38;100.00
66273;BME280;58450;52.150;4.466;2022-11-20T09:39:37;101054.31;;;1.32;100.00
66273;BME280;58450;52.150;4.466;2022-11-20T09:42:19;101045.75;;;1.40;100.00
66273;BME280;58450;52.150;4.466;2022-11-20T09:45:14;101036.25;;;1.26;100.00
66273;BME280;58450;52.150;4.466;2022-11-20T09:48:08;101045.75;;;1.28;100.00
66273;BME280;58450;52.150;4.466;2022-11-20T09:50:52;101042.59;;;1.46;100.00
66273;BME280;58450;52.150;4.466;2022-11-20T09:53:32;101034.97;;;1.53;100.00
66273;BME280;58450;52.150;4.466;2022-11-20T09:56:10;101036.66;;;1.54;100.00
66273;BME280;58450;52.150;4.466;2022-11-20T09:58:40;101015.22;;;1.45;100.00
66273;BME280;58450;52.150;4.466;2022-11-20T10:01:16;101011.03;;;1.43;100.00
66273;BME280;58450;52.150;4.466;2022-11-20T10:03:51;100999.81;;;1.39;100.00
66273;BME280;58450;52.150;4.466;2022-11-20T10:06:28;100996.81;;;1.32;100.00
66273;BME280;58450;52.150;4.466;2022-11-20T10:09:06;100989.41;;;1.59;100.00
66273;BME280;58450;52.150;4.466;2022-11-20T10:11:50;100979.91;;;1.56;100.00
66273;BME280;58450;52.150;4.466;2022-11-20T10:14:31;100974.19;;;1.61;100.00
66273;BME280;58450;52.150;4.466;2022-11-20T10:17:16;100974.44;;;1.58;100.00
66273;BME280;58450;52.150;4.466;2022-11-20T10:20:12;100979.97;;;1.66;100.00
66273;BME280;58450;52.150;4.466;2022-11-20T10:22:56;100970.34;;;1.54;100.00
66273;BME280;58450;52.150;4.466;2022-11-20T10:25:38;100965.56;;;1.47;100.00
66273;BME280;58450;52.150;4.466;2022-11-20T10:28:17;100961.53;;;1.65;100.00
66273;BME280;58450;52.150;4.466;2022-11-20T10:31:00;100957.09;;;1.54;100.00
66273;BME280;58450;52.150;4.466;2022-11-20T10:33:33;100936.59;;;1.56;100.00
66273;BME280;58450;52.150;4.466;2022-11-20T10:36:10;100933.22;;;1.54;100.00
66273;BME280;58450;52.150;4.466;2022-11-20T10:38:47;100927.41;;;1.60;100.00
66273;BME280;58450;52.150;4.466;2022-11-20T10:41:27;100919.38;;;1.50;100.00
66273;BME280;58450;52.150;4.466;2022-11-20T10:44:03;100899.56;;;1.66;100.00
66273;BME280;58450;52.150;4.466;2022-11-20T10:46:40;100906.88;;;1.73;100.00
66273;BME280;58450;52.150;4.466;2022-11-20T10:49:16;100904.81;;;1.98;100.00
66273;BME280;58450;52.150;4.466;2022-11-20T10:51:57;100893.72;;;2.14;100.00
66273;BME280;58450;52.150;4.466;2022-11-20T10:54:36;100895.41;;;2.15;100.00
66273;BME280;58450;52.150;4.466;2022-11-20T10:57:20;100898.78;;;2.17;100.00
66273;BME280;58450;52.150;4.466;2022-11-20T11:00:04;100903.19;;;2.07;100.00
66273;BME280;58450;52.150;4.466;2022-11-20T11:02:38;100899.06;;;1.93;100.00
66273;BME280;58450;52.150;4.466;2022-11-20T11:05:31;100883.75;;;1.85;100.00
66273;BME280;58450;52.150;4.466;2022-11-20T11:08:03;100878.38;;;1.97;100.00
66273;BME280;58450;52.150;4.466;2022-11-20T11:10:39;100876.97;;;1.92;100.00
66273;BME280;58450;52.150;4.466;2022-11-20T11:13:21;100869.84;;;1.93;100.00
66273;BME280;58450;52.150;4.466;2022-11-20T11:15:51;100859.34;;;1.91;100.00
66273;BME280;58450;52.150;4.466;2022-11-20T11:18:24;100854.31;;;1.88;100.00
66273;BME280;58450;52.150;4.466;2022-11-20T11:20:55;100851.50;;;2.11;100.00
66273;BME280;58450;52.150;4.466;2022-11-20T11:23:31;100844.75;;;2.28;100.00
66273;BME280;58450;52.150;4.466;2022-11-20T11:26:03;100837.41;;;2.42;100.00
66273;BME280;58450;52.150;4.466;2022-11-20T11:28:32;100839.41;;;2.49;100.00
66273;BME280;58450;52.150;4.466;2022-11-20T11:31:01;100834.56;;;2.33;100.00
66273;BME280;58450;52.150;4.466;2022-11-20T11:33:30;100814.03;;;2.35;100.00
66273;BME280;58450;52.150;4.466;2022-11-20T11:36:04;100803.88;;;2.50;100.00
66273;BME280;58450;52.150;4.466;2022-11-20T11:38:44;100803.25;;;2.78;100.00
66273;BME280;58450;52.150;4.466;2022-11-20T11:41:16;100798.66;;;3.00;100.00
66273;BME280;58450;52.150;4.466;2022-11-20T11:43:51;100794.72;;;2.94;100.00
66273;BME280;58450;52.150;4.466;2022-11-20T11:46:45;100792.06;;;2.94;100.00
66273;BME280;58450;52.150;4.466;2022-11-20T11:49:21;100784.75;;;2.66;100.00
66273;BME280;58450;52.150;4.466;2022-11-20T11:52:00;100769.53;;;2.69;100.00
66273;BME280;58450;52.150;4.466;2022-11-20T11:54:38;100759.16;;;2.75;100.00
66273;BME280;58450;52.150;4.466;2022-11-20T11:57:22;100748.00;;;2.72;100.00
66273;BME280;58450;52.150;4.466;2022-11-20T12:00:02;100739.88;;;2.73;100.00
66273;BME280;58450;52.150;4.466;2022-11-20T12:02:36;100728.53;;;2.71;100.00
66273;BME280;58450;52.150;4.466;2022-11-20T12:05:23;100719.84;;;2.69;100.00
66273;BME280;58450;52.150;4.466;2022-11-20T12:07:57;100719.59;;;2.62;100.00
66273;BME280;58450;52.150;4.466;2022-11-20T12:10:38;100724.78;;;2.64;100.00
66273;BME280;58450;52.150;4.466;2022-11-20T12:13:20;100712.47;;;2.63;100.00
66273;BME280;58450;52.150;4.466;2022-11-20T12:15:53;100707.28;;;2.61;100.00
66273;BME280;58450;52.150;4.466;2022-11-20T12:18:22;100708.53;;;2.67;100.00
66273;BME280;58450;52.150;4.466;2022-11-20T12:20:59;100712.59;;;2.71;100.00
66273;BME280;58450;52.150;4.466;2022-11-20T12:23:45;100714.97;;;2.64;100.00
66273;BME280;58450;52.150;4.466;2022-11-20T12:26:38;100717.22;;;2.59;100.00
66273;BME280;58450;52.150;4.466;2022-11-20T12:29:30;100721.66;;;2.49;100.00
66273;BME280;58450;52.150;4.466;2022-11-20T12:32:28;100717.22;;;2.49;100.00
66273;BME280;58450;52.150;4.466;2022-11-20T12:35:30;100714.56;;;2.59;100.00
66273;BME280;58450;52.150;4.466;2022-11-20T12:38:29;100712.03;;;2.68;100.00
66273;BME280;58450;52.150;4.466;2022-11-20T12:41:19;100699.59;;;2.68;100.00
66273;BME280;58450;52.150;4.466;2022-11-20T12:44:21;100707.88;;;2.65;100.00
66273;BME280;58450;52.150;4.466;2022-11-20T12:47:21;100698.75;;;2.58;100.00
66273;BME280;58450;52.150;4.466;2022-11-20T12:50:01;100709.66;;;2.64;100.00
66273;BME280;58450;52.150;4.466;2022-11-20T12:52:40;100691.47;;;2.70;100.00
66273;BME280;58450;52.150;4.466;2022-11-20T12:55:28;100689.38;;;2.63;100.00
66273;BME280;58450;52.150;4.466;2022-11-20T12:58:10;100682.66;;;2.59;100.00
66273;BME280;58450;52.150;4.466;2022-11-20T13:00:49;100668.69;;;2.67;100.00
66273;BME280;58450;52.150;4.466;2022-11-20T13:03:39;100648.00;;;2.71;100.00
66273;BME280;58450;52.150;4.466;2022-11-20T13:06:14;100652.44;;;2.70;100.00
66273;BME280;58450;52.150;4.466;2022-11-20T13:08:48;100645.19;;;2.62;100.00